sensor_id;sensor_type;location;lat;lon;timestamp;temperature
24484;DS18B20;12643;51.620;7.548;2022-07-19T00:00:25;21.13
24484;DS18B20;12643;51.620;7.548;2022-07-19T00:02:53;21.56
24484;DS18B20;12643;51.620;7.548;2022-07-19T00:05:21;22.06
24484;DS18B20;12643;51.620;7.548;2022-07-19T00:07:51;22.31
24484;DS18B20;12643;51.620;7.548;2022-07-19T00:10:19;22.31
24484;DS18B20;12643;51.620;7.548;2022-07-19T00:12:48;22.25
24484;DS18B20;12643;51.620;7.548;2022-07-19T00:15:16;22.06
24484;DS18B20;12643;51.620;7.548;2022-07-19T00:17:47;22.00
24484;DS18B20;12643;51.620;7.548;2022-07-19T00:20:18;22.00
24484;DS18B20;12643;51.620;7.548;2022-07-19T00:22:46;21.56
24484;DS18B20;12643;51.620;7.548;2022-07-19T00:25:16;21.56
24484;DS18B20;12643;51.620;7.548;2022-07-19T00:27:44;21.75
24484;DS18B20;12643;51.620;7.548;2022-07-19T00:30:13;21.75
24484;DS18B20;12643;51.620;7.548;2022-07-19T00:32:41;21.88
24484;DS18B20;12643;51.620;7.548;2022-07-19T00:35:09;21.63
24484;DS18B20;12643;51.620;7.548;2022-07-19T00:37:37;21.44
24484;DS18B20;12643;51.620;7.548;2022-07-19T00:40:08;21.44
24484;DS18B20;12643;51.620;7.548;2022-07-19T00:42:37;21.44
24484;DS18B20;12643;51.620;7.548;2022-07-19T00:45:06;21.44
24484;DS18B20;12643;51.620;7.548;2022-07-19T00:47:35;21.38
24484;DS18B20;12643;51.620;7.548;2022-07-19T00:50:05;21.31
24484;DS18B20;12643;51.620;7.548;2022-07-19T00:52:33;21.38
24484;DS18B20;12643;51.620;7.548;2022-07-19T00:55:03;21.31
24484;DS18B20;12643;51.620;7.548;2022-07-19T00:57:31;21.25
24484;DS18B20;12643;51.620;7.548;2022-07-19T01:00:01;21.25
24484;DS18B20;12643;51.620;7.548;2022-07-19T01:02:30;21.19
24484;DS18B20;12643;51.620;7.548;2022-07-19T01:05:11;21.13
24484;DS18B20;12643;51.620;7.548;2022-07-19T01:07:50;21.19
24484;DS18B20;12643;51.620;7.548;2022-07-19T01:10:19;21.19
24484;DS18B20;12643;51.620;7.548;2022-07-19T01:12:47;21.19
24484;DS18B20;12643;51.620;7.548;2022-07-19T01:15:20;21.13
24484;DS18B20;12643;51.620;7.548;2022-07-19T01:17:50;21.00
24484;DS18B20;12643;51.620;7.548;2022-07-19T01:20:18;21.00
24484;DS18B20;12643;51.620;7.548;2022-07-19T01:22:48;21.00
24484;DS18B20;12643;51.620;7.548;2022-07-19T01:25:16;21.00
24484;DS18B20;12643;51.620;7.548;2022-07-19T01:27:46;21.00
24484;DS18B20;12643;51.620;7.548;2022-07-19T01:30:17;20.88
24484;DS18B20;12643;51.620;7.548;2022-07-19T01:32:45;20.81
24484;DS18B20;12643;51.620;7.548;2022-07-19T01:35:15;20.81
24484;DS18B20;12643;51.620;7.548;2022-07-19T01:37:43;20.75
24484;DS18B20;12643;51.620;7.548;2022-07-19T01:40:15;20.69
24484;DS18B20;12643;51.620;7.548;2022-07-19T01:42:44;20.63
24484;DS18B20;12643;51.620;7.548;2022-07-19T01:45:13;20.56
24484;DS18B20;12643;51.620;7.548;2022-07-19T01:47:41;20.56
24484;DS18B20;12643;51.620;7.548;2022-07-19T01:50:12;20.44
24484;DS18B20;12643;51.620;7.548;2022-07-19T01:52:41;20.56
24484;DS18B20;12643;51.620;7.548;2022-07-19T01:55:09;20.50
24484;DS18B20;12643;51.620;7.548;2022-07-19T01:57:38;20.44
24484;DS18B20;12643;51.620;7.548;2022-07-19T02:00:08;20.13
24484;DS18B20;12643;51.620;7.548;2022-07-19T02:02:36;20.19
24484;DS18B20;12643;51.620;7.548;2022-07-19T02:05:05;19.81
24484;DS18B20;12643;51.620;7.548;2022-07-19T02:07:33;20.06
24484;DS18B20;12643;51.620;7.548;2022-07-19T02:10:03;20.00
24484;DS18B20;12643;51.620;7.548;2022-07-19T02:12:31;19.94
24484;DS18B20;12643;51.620;7.548;2022-07-19T02:15:01;19.94
24484;DS18B20;12643;51.620;7.548;2022-07-19T02:17:29;20.06
24484;DS18B20;12643;51.620;7.548;2022-07-19T02:19:56;20.19
24484;DS18B20;12643;51.620;7.548;2022-07-19T02:22:25;20.00
24484;DS18B20;12643;51.620;7.548;2022-07-19T02:24:52;19.81
24484;DS18B20;12643;51.620;7.548;2022-07-19T02:27:20;19.75
24484;DS18B20;12643;51.620;7.548;2022-07-19T02:29:48;19.63
24484;DS18B20;12643;51.620;7.548;2022-07-19T02:32:18;19.63
24484;DS18B20;12643;51.620;7.548;2022-07-19T02:34:46;19.63
24484;DS18B20;12643;51.620;7.548;2022-07-19T02:37:14;19.69
24484;DS18B20;12643;51.620;7.548;2022-07-19T02:39:42;19.50
24484;DS18B20;12643;51.620;7.548;2022-07-19T02:42:10;19.44
24484;DS18B20;12643;51.620;7.548;2022-07-19T02:44:37;19.44
24484;DS18B20;12643;51.620;7.548;2022-07-19T02:47:05;19.56
24484;DS18B20;12643;51.620;7.548;2022-07-19T02:49:35;19.63
24484;DS18B20;12643;51.620;7.548;2022-07-19T02:52:03;19.63
24484;DS18B20;12643;51.620;7.548;2022-07-19T02:54:31;19.50
24484;DS18B20;12643;51.620;7.548;2022-07-19T02:56:59;19.44
24484;DS18B20;12643;51.620;7.548;2022-07-19T02:59:27;19.50
24484;DS18B20;12643;51.620;7.548;2022-07-19T03:01:55;19.63
24484;DS18B20;12643;51.620;7.548;2022-07-19T03:04:22;19.63
24484;DS18B20;12643;51.620;7.548;2022-07-19T03:06:52;19.56
24484;DS18B20;12643;51.620;7.548;2022-07-19T03:09:19;19.50
24484;DS18B20;12643;51.620;7.548;2022-07-19T03:11:47;19.50
24484;DS18B20;12643;51.620;7.548;2022-07-19T03:14:15;19.50
24484;DS18B20;12643;51.620;7.548;2022-07-19T03:16:43;19.25
24484;DS18B20;12643;51.620;7.548;2022-07-19T03:19:11;19.00
24484;DS18B20;12643;51.620;7.548;2022-07-19T03:21:38;19.06
24484;DS18B20;12643;51.620;7.548;2022-07-19T03:24:08;19.25
24484;DS18B20;12643;51.620;7.548;2022-07-19T03:26:36;19.38
24484;DS18B20;12643;51.620;7.548;2022-07-19T03:29:04;19.38
24484;DS18B20;12643;51.620;7.548;2022-07-19T03:31:31;19.31
24484;DS18B20;12643;51.620;7.548;2022-07-19T03:33:59;19.19
24484;DS18B20;12643;51.620;7.548;2022-07-19T03:36:27;19.19
24484;DS18B20;12643;51.620;7.548;2022-07-19T03:38:55;19.13
24484;DS18B20;12643;51.620;7.548;2022-07-19T03:41:25;19.06
24484;DS18B20;12643;51.620;7.548;2022-07-19T03:43:53;19.00
24484;DS18B20;12643;51.620;7.548;2022-07-19T03:46:21;19.00
24484;DS18B20;12643;51.620;7.548;2022-07-19T03:48:49;19.13
24484;DS18B20;12643;51.620;7.548;2022-07-19T03:51:16;19.13
24484;DS18B20;12643;51.620;7.548;2022-07-19T03:53:44;19.13
24484;DS18B20;12643;51.620;7.548;2022-07-19T03:56:12;19.19
24484;DS18B20;12643;51.620;7.548;2022-07-19T03:58:42;19.19
24484;DS18B20;12643;51.620;7.548;2022-07-19T04:01:10;19.13
24484;DS18B20;12643;51.620;7.548;2022-07-19T04:03:38;19.06
24484;DS18B20;12643;51.620;7.548;2022-07-19T04:06:06;19.06
24484;DS18B20;12643;51.620;7.548;2022-07-19T04:08:34;19.19
24484;DS18B20;12643;51.620;7.548;2022-07-19T04:11:02;19.31
24484;DS18B20;12643;51.620;7.548;2022-07-19T04:13:33;19.38
24484;DS18B20;12643;51.620;7.548;2022-07-19T04:16:03;19.44
24484;DS18B20;12643;51.620;7.548;2022-07-19T04:18:31;19.31
24484;DS18B20;12643;51.620;7.548;2022-07-19T04:20:59;19.38
24484;DS18B20;12643;51.620;7.548;2022-07-19T04:23:28;19.31
24484;DS18B20;12643;51.620;7.548;2022-07-19T04:25:59;19.19
24484;DS18B20;12643;51.620;7.548;2022-07-19T04:28:27;19.38
24484;DS18B20;12643;51.620;7.548;2022-07-19T04:30:55;19.44
24484;DS18B20;12643;51.620;7.548;2022-07-19T04:33:24;19.50
24484;DS18B20;12643;51.620;7.548;2022-07-19T04:35:52;19.69
24484;DS18B20;12643;51.620;7.548;2022-07-19T04:38:20;19.81
24484;DS18B20;12643;51.620;7.548;2022-07-19T04:40:49;19.88
24484;DS18B20;12643;51.620;7.548;2022-07-19T04:43:18;19.88
24484;DS18B20;12643;51.620;7.548;2022-07-19T04:45:45;19.88
24484;DS18B20;12643;51.620;7.548;2022-07-19T04:48:13;20.06
24484;DS18B20;12643;51.620;7.548;2022-07-19T04:50:42;20.06
24484;DS18B20;12643;51.620;7.548;2022-07-19T04:53:10;20.00
24484;DS18B20;12643;51.620;7.548;2022-07-19T04:55:38;20.06
24484;DS18B20;12643;51.620;7.548;2022-07-19T04:58:06;20.13
24484;DS18B20;12643;51.620;7.548;2022-07-19T05:00:34;20.19
24484;DS18B20;12643;51.620;7.548;2022-07-19T05:03:02;20.13
24484;DS18B20;12643;51.620;7.548;2022-07-19T05:05:31;20.19
24484;DS18B20;12643;51.620;7.548;2022-07-19T05:08:00;20.06
24484;DS18B20;12643;51.620;7.548;2022-07-19T05:10:28;20.13
24484;DS18B20;12643;51.620;7.548;2022-07-19T05:12:56;20.13
24484;DS18B20;12643;51.620;7.548;2022-07-19T05:15:23;20.13
24484;DS18B20;12643;51.620;7.548;2022-07-19T05:17:51;20.13
24484;DS18B20;12643;51.620;7.548;2022-07-19T05:20:20;20.00
24484;DS18B20;12643;51.620;7.548;2022-07-19T05:22:48;20.31
24484;DS18B20;12643;51.620;7.548;2022-07-19T05:25:18;20.38
24484;DS18B20;12643;51.620;7.548;2022-07-19T05:27:46;20.50
24484;DS18B20;12643;51.620;7.548;2022-07-19T05:30:13;20.56
24484;DS18B20;12643;51.620;7.548;2022-07-19T05:32:42;20.88
24484;DS18B20;12643;51.620;7.548;2022-07-19T05:35:10;20.94
24484;DS18B20;12643;51.620;7.548;2022-07-19T05:37:38;21.19
24484;DS18B20;12643;51.620;7.548;2022-07-19T05:40:07;21.25
24484;DS18B20;12643;51.620;7.548;2022-07-19T05:42:38;21.38
24484;DS18B20;12643;51.620;7.548;2022-07-19T05:45:07;21.50
24484;DS18B20;12643;51.620;7.548;2022-07-19T05:47:35;21.13
24484;DS18B20;12643;51.620;7.548;2022-07-19T05:50:05;21.25
24484;DS18B20;12643;51.620;7.548;2022-07-19T05:52:33;21.44
24484;DS18B20;12643;51.620;7.548;2022-07-19T05:55:01;21.50
24484;DS18B20;12643;51.620;7.548;2022-07-19T05:57:29;21.56
24484;DS18B20;12643;51.620;7.548;2022-07-19T05:59:59;21.75
24484;DS18B20;12643;51.620;7.548;2022-07-19T06:02:39;21.88
24484;DS18B20;12643;51.620;7.548;2022-07-19T06:05:07;22.00
24484;DS18B20;12643;51.620;7.548;2022-07-19T06:07:37;22.19
24484;DS18B20;12643;51.620;7.548;2022-07-19T06:10:11;22.19
24484;DS18B20;12643;51.620;7.548;2022-07-19T06:12:39;22.19
24484;DS18B20;12643;51.620;7.548;2022-07-19T06:15:10;22.13
24484;DS18B20;12643;51.620;7.548;2022-07-19T06:17:38;22.38
24484;DS18B20;12643;51.620;7.548;2022-07-19T06:20:06;22.44
24484;DS18B20;12643;51.620;7.548;2022-07-19T06:22:34;22.50
24484;DS18B20;12643;51.620;7.548;2022-07-19T06:25:02;22.75
24484;DS18B20;12643;51.620;7.548;2022-07-19T06:27:31;22.69
24484;DS18B20;12643;51.620;7.548;2022-07-19T06:29:59;22.63
24484;DS18B20;12643;51.620;7.548;2022-07-19T06:32:30;22.75
24484;DS18B20;12643;51.620;7.548;2022-07-19T06:34:59;22.75
24484;DS18B20;12643;51.620;7.548;2022-07-19T06:37:28;23.00
24484;DS18B20;12643;51.620;7.548;2022-07-19T06:39:59;23.06
24484;DS18B20;12643;51.620;7.548;2022-07-19T06:42:33;23.13
24484;DS18B20;12643;51.620;7.548;2022-07-19T06:45:01;23.13
24484;DS18B20;12643;51.620;7.548;2022-07-19T06:47:31;23.38
24484;DS18B20;12643;51.620;7.548;2022-07-19T06:49:59;23.50
24484;DS18B20;12643;51.620;7.548;2022-07-19T06:52:28;23.50
24484;DS18B20;12643;51.620;7.548;2022-07-19T06:54:56;23.75
24484;DS18B20;12643;51.620;7.548;2022-07-19T06:57:24;23.94
24484;DS18B20;12643;51.620;7.548;2022-07-19T06:59:52;24.13
24484;DS18B20;12643;51.620;7.548;2022-07-19T07:02:20;24.19
24484;DS18B20;12643;51.620;7.548;2022-07-19T07:04:49;24.31
24484;DS18B20;12643;51.620;7.548;2022-07-19T07:07:19;24.63
24484;DS18B20;12643;51.620;7.548;2022-07-19T07:09:47;24.81
24484;DS18B20;12643;51.620;7.548;2022-07-19T07:12:15;24.94
24484;DS18B20;12643;51.620;7.548;2022-07-19T07:14:44;25.00
24484;DS18B20;12643;51.620;7.548;2022-07-19T07:17:12;25.00
24484;DS18B20;12643;51.620;7.548;2022-07-19T07:19:50;25.13
24484;DS18B20;12643;51.620;7.548;2022-07-19T07:22:39;25.38
24484;DS18B20;12643;51.620;7.548;2022-07-19T07:25:08;25.44
24484;DS18B20;12643;51.620;7.548;2022-07-19T07:27:36;25.63
24484;DS18B20;12643;51.620;7.548;2022-07-19T07:30:06;25.63
24484;DS18B20;12643;51.620;7.548;2022-07-19T07:32:34;25.94
24484;DS18B20;12643;51.620;7.548;2022-07-19T07:35:05;26.06
24484;DS18B20;12643;51.620;7.548;2022-07-19T07:37:32;26.25
24484;DS18B20;12643;51.620;7.548;2022-07-19T07:40:02;26.44
24484;DS18B20;12643;51.620;7.548;2022-07-19T07:42:31;26.31
24484;DS18B20;12643;51.620;7.548;2022-07-19T07:45:04;26.44
24484;DS18B20;12643;51.620;7.548;2022-07-19T07:47:36;26.63
24484;DS18B20;12643;51.620;7.548;2022-07-19T07:50:07;26.88
24484;DS18B20;12643;51.620;7.548;2022-07-19T07:52:35;27.00
24484;DS18B20;12643;51.620;7.548;2022-07-19T07:55:07;27.19
24484;DS18B20;12643;51.620;7.548;2022-07-19T07:57:34;27.31
24484;DS18B20;12643;51.620;7.548;2022-07-19T08:00:03;27.31
24484;DS18B20;12643;51.620;7.548;2022-07-19T08:02:35;27.63
24484;DS18B20;12643;51.620;7.548;2022-07-19T08:05:08;27.81
24484;DS18B20;12643;51.620;7.548;2022-07-19T08:07:36;28.00
24484;DS18B20;12643;51.620;7.548;2022-07-19T08:10:06;28.13
24484;DS18B20;12643;51.620;7.548;2022-07-19T08:12:35;28.00
24484;DS18B20;12643;51.620;7.548;2022-07-19T08:15:07;28.31
24484;DS18B20;12643;51.620;7.548;2022-07-19T08:17:36;28.50
24484;DS18B20;12643;51.620;7.548;2022-07-19T08:20:10;28.50
24484;DS18B20;12643;51.620;7.548;2022-07-19T08:22:40;28.88
24484;DS18B20;12643;51.620;7.548;2022-07-19T08:25:09;29.06
24484;DS18B20;12643;51.620;7.548;2022-07-19T08:27:41;29.13
24484;DS18B20;12643;51.620;7.548;2022-07-19T08:30:10;29.31
24484;DS18B20;12643;51.620;7.548;2022-07-19T08:32:42;29.25
24484;DS18B20;12643;51.620;7.548;2022-07-19T08:35:15;29.38
24484;DS18B20;12643;51.620;7.548;2022-07-19T08:37:43;29.50
24484;DS18B20;12643;51.620;7.548;2022-07-19T08:40:13;29.44
24484;DS18B20;12643;51.620;7.548;2022-07-19T08:42:41;29.69
24484;DS18B20;12643;51.620;7.548;2022-07-19T08:45:10;29.94
24484;DS18B20;12643;51.620;7.548;2022-07-19T08:47:39;30.06
24484;DS18B20;12643;51.620;7.548;2022-07-19T08:50:10;30.25
24484;DS18B20;12643;51.620;7.548;2022-07-19T08:52:44;30.44
24484;DS18B20;12643;51.620;7.548;2022-07-19T08:55:13;30.50
24484;DS18B20;12643;51.620;7.548;2022-07-19T08:57:41;30.56
24484;DS18B20;12643;51.620;7.548;2022-07-19T09:00:28;30.50
24484;DS18B20;12643;51.620;7.548;2022-07-19T09:02:58;30.69
24484;DS18B20;12643;51.620;7.548;2022-07-19T09:05:28;30.94
24484;DS18B20;12643;51.620;7.548;2022-07-19T09:08:13;30.94
24484;DS18B20;12643;51.620;7.548;2022-07-19T09:10:46;31.19
24484;DS18B20;12643;51.620;7.548;2022-07-19T09:13:38;31.13
24484;DS18B20;12643;51.620;7.548;2022-07-19T09:16:06;31.31
24484;DS18B20;12643;51.620;7.548;2022-07-19T09:18:35;31.75
24484;DS18B20;12643;51.620;7.548;2022-07-19T09:21:05;31.75
24484;DS18B20;12643;51.620;7.548;2022-07-19T09:23:41;32.00
24484;DS18B20;12643;51.620;7.548;2022-07-19T09:26:09;31.94
24484;DS18B20;12643;51.620;7.548;2022-07-19T09:28:36;32.19
24484;DS18B20;12643;51.620;7.548;2022-07-19T09:31:04;32.31
24484;DS18B20;12643;51.620;7.548;2022-07-19T09:33:34;32.19
24484;DS18B20;12643;51.620;7.548;2022-07-19T09:36:12;32.38
24484;DS18B20;12643;51.620;7.548;2022-07-19T09:38:42;32.56
24484;DS18B20;12643;51.620;7.548;2022-07-19T09:41:11;32.75
24484;DS18B20;12643;51.620;7.548;2022-07-19T09:43:52;32.69
24484;DS18B20;12643;51.620;7.548;2022-07-19T09:46:31;32.69
24484;DS18B20;12643;51.620;7.548;2022-07-19T09:49:09;32.88
24484;DS18B20;12643;51.620;7.548;2022-07-19T09:51:41;33.06
24484;DS18B20;12643;51.620;7.548;2022-07-19T09:54:16;33.06
24484;DS18B20;12643;51.620;7.548;2022-07-19T09:57:00;33.38
24484;DS18B20;12643;51.620;7.548;2022-07-19T09:59:34;33.56
24484;DS18B20;12643;51.620;7.548;2022-07-19T10:02:03;33.44
24484;DS18B20;12643;51.620;7.548;2022-07-19T10:04:33;33.63
24484;DS18B20;12643;51.620;7.548;2022-07-19T10:07:09;33.63
24484;DS18B20;12643;51.620;7.548;2022-07-19T10:09:44;33.75
24484;DS18B20;12643;51.620;7.548;2022-07-19T10:12:19;33.75
24484;DS18B20;12643;51.620;7.548;2022-07-19T10:14:48;33.75
24484;DS18B20;12643;51.620;7.548;2022-07-19T10:17:25;33.94
24484;DS18B20;12643;51.620;7.548;2022-07-19T10:19:54;34.19
24484;DS18B20;12643;51.620;7.548;2022-07-19T10:22:26;34.31
24484;DS18B20;12643;51.620;7.548;2022-07-19T10:24:57;34.25
24484;DS18B20;12643;51.620;7.548;2022-07-19T10:27:40;34.06
24484;DS18B20;12643;51.620;7.548;2022-07-19T10:30:21;34.13
24484;DS18B20;12643;51.620;7.548;2022-07-19T10:32:53;34.38
24484;DS18B20;12643;51.620;7.548;2022-07-19T10:35:23;34.50
24484;DS18B20;12643;51.620;7.548;2022-07-19T10:38:08;34.50
24484;DS18B20;12643;51.620;7.548;2022-07-19T10:40:44;34.63
24484;DS18B20;12643;51.620;7.548;2022-07-19T10:43:14;34.81
24484;DS18B20;12643;51.620;7.548;2022-07-19T10:46:08;34.81
24484;DS18B20;12643;51.620;7.548;2022-07-19T10:48:37;34.75
24484;DS18B20;12643;51.620;7.548;2022-07-19T10:51:07;34.88
24484;DS18B20;12643;51.620;7.548;2022-07-19T10:53:59;34.94
24484;DS18B20;12643;51.620;7.548;2022-07-19T10:56:40;34.94
24484;DS18B20;12643;51.620;7.548;2022-07-19T10:59:11;34.88
24484;DS18B20;12643;51.620;7.548;2022-07-19T11:01:55;35.00
24484;DS18B20;12643;51.620;7.548;2022-07-19T11:04:31;35.06
24484;DS18B20;12643;51.620;7.548;2022-07-19T11:07:17;35.13
24484;DS18B20;12643;51.620;7.548;2022-07-19T11:09:48;35.44
24484;DS18B20;12643;51.620;7.548;2022-07-19T11:12:30;35.56
24484;DS18B20;12643;51.620;7.548;2022-07-19T11:15:00;35.50
24484;DS18B20;12643;51.620;7.548;2022-07-19T11:17:28;35.38
24484;DS18B20;12643;51.620;7.548;2022-07-19T11:20:09;35.56
24484;DS18B20;12643;51.620;7.548;2022-07-19T11:22:40;35.75
24484;DS18B20;12643;51.620;7.548;2022-07-19T11:25:11;35.94
24484;DS18B20;12643;51.620;7.548;2022-07-19T11:27:43;36.00
24484;DS18B20;12643;51.620;7.548;2022-07-19T11:30:13;35.94
24484;DS18B20;12643;51.620;7.548;2022-07-19T11:32:42;35.94
24484;DS18B20;12643;51.620;7.548;2022-07-19T11:35:19;36.06
24484;DS18B20;12643;51.620;7.548;2022-07-19T11:37:47;35.94
24484;DS18B20;12643;51.620;7.548;2022-07-19T11:40:15;36.25
24484;DS18B20;12643;51.620;7.548;2022-07-19T11:42:47;36.06
24484;DS18B20;12643;51.620;7.548;2022-07-19T11:45:18;35.88
24484;DS18B20;12643;51.620;7.548;2022-07-19T11:47:47;36.00
24484;DS18B20;12643;51.620;7.548;2022-07-19T11:50:18;35.88
24484;DS18B20;12643;51.620;7.548;2022-07-19T11:52:47;36.06
24484;DS18B20;12643;51.620;7.548;2022-07-19T11:55:18;36.38
24484;DS18B20;12643;51.620;7.548;2022-07-19T11:57:49;36.25
24484;DS18B20;12643;51.620;7.548;2022-07-19T12:00:18;36.56
24484;DS18B20;12643;51.620;7.548;2022-07-19T12:02:57;36.75
24484;DS18B20;12643;51.620;7.548;2022-07-19T12:05:30;36.88
24484;DS18B20;12643;51.620;7.548;2022-07-19T12:08:01;36.88
24484;DS18B20;12643;51.620;7.548;2022-07-19T12:10:39;37.00
24484;DS18B20;12643;51.620;7.548;2022-07-19T12:13:30;36.81
24484;DS18B20;12643;51.620;7.548;2022-07-19T12:16:00;36.94
24484;DS18B20;12643;51.620;7.548;2022-07-19T12:18:49;36.94
24484;DS18B20;12643;51.620;7.548;2022-07-19T12:21:22;37.19
24484;DS18B20;12643;51.620;7.548;2022-07-19T12:24:09;37.31
24484;DS18B20;12643;51.620;7.548;2022-07-19T12:26:59;37.19
24484;DS18B20;12643;51.620;7.548;2022-07-19T12:29:34;37.13
24484;DS18B20;12643;51.620;7.548;2022-07-19T12:32:05;37.50
24484;DS18B20;12643;51.620;7.548;2022-07-19T12:34:49;37.06
24484;DS18B20;12643;51.620;7.548;2022-07-19T12:37:24;37.50
24484;DS18B20;12643;51.620;7.548;2022-07-19T12:40:01;37.06
24484;DS18B20;12643;51.620;7.548;2022-07-19T12:42:42;37.00
24484;DS18B20;12643;51.620;7.548;2022-07-19T12:45:14;36.69
24484;DS18B20;12643;51.620;7.548;2022-07-19T12:47:46;36.88
24484;DS18B20;12643;51.620;7.548;2022-07-19T12:50:21;37.44
24484;DS18B20;12643;51.620;7.548;2022-07-19T12:52:50;37.75
24484;DS18B20;12643;51.620;7.548;2022-07-19T12:55:22;37.69
24484;DS18B20;12643;51.620;7.548;2022-07-19T12:57:53;37.88
24484;DS18B20;12643;51.620;7.548;2022-07-19T13:00:33;38.31
24484;DS18B20;12643;51.620;7.548;2022-07-19T13:03:02;37.94
24484;DS18B20;12643;51.620;7.548;2022-07-19T13:05:31;37.94
24484;DS18B20;12643;51.620;7.548;2022-07-19T13:07:59;37.63
24484;DS18B20;12643;51.620;7.548;2022-07-19T13:10:29;37.94
24484;DS18B20;12643;51.620;7.548;2022-07-19T13:12:57;38.00
24484;DS18B20;12643;51.620;7.548;2022-07-19T13:15:25;38.06
24484;DS18B20;12643;51.620;7.548;2022-07-19T13:18:01;38.44
24484;DS18B20;12643;51.620;7.548;2022-07-19T13:20:30;38.63
24484;DS18B20;12643;51.620;7.548;2022-07-19T13:22:58;38.38
24484;DS18B20;12643;51.620;7.548;2022-07-19T13:25:26;38.63
24484;DS18B20;12643;51.620;7.548;2022-07-19T13:27:58;38.75
24484;DS18B20;12643;51.620;7.548;2022-07-19T13:30:37;38.75
24484;DS18B20;12643;51.620;7.548;2022-07-19T13:33:07;38.13
24484;DS18B20;12643;51.620;7.548;2022-07-19T13:35:39;38.44
24484;DS18B20;12643;51.620;7.548;2022-07-19T13:38:16;38.50
24484;DS18B20;12643;51.620;7.548;2022-07-19T13:40:53;38.69
24484;DS18B20;12643;51.620;7.548;2022-07-19T13:43:22;39.13
24484;DS18B20;12643;51.620;7.548;2022-07-19T13:46:00;38.44
24484;DS18B20;12643;51.620;7.548;2022-07-19T13:48:41;38.50
24484;DS18B20;12643;51.620;7.548;2022-07-19T13:51:40;38.44
24484;DS18B20;12643;51.620;7.548;2022-07-19T13:54:17;38.88
24484;DS18B20;12643;51.620;7.548;2022-07-19T13:57:07;38.56
24484;DS18B20;12643;51.620;7.548;2022-07-19T14:00:04;38.63
24484;DS18B20;12643;51.620;7.548;2022-07-19T14:02:40;39.00
24484;DS18B20;12643;51.620;7.548;2022-07-19T14:05:11;39.19
24484;DS18B20;12643;51.620;7.548;2022-07-19T14:07:42;38.81
24484;DS18B20;12643;51.620;7.548;2022-07-19T14:10:12;39.13
24484;DS18B20;12643;51.620;7.548;2022-07-19T14:12:41;39.13
24484;DS18B20;12643;51.620;7.548;2022-07-19T14:15:12;39.50
24484;DS18B20;12643;51.620;7.548;2022-07-19T14:17:48;39.25
24484;DS18B20;12643;51.620;7.548;2022-07-19T14:20:18;39.19
24484;DS18B20;12643;51.620;7.548;2022-07-19T14:22:48;38.44
24484;DS18B20;12643;51.620;7.548;2022-07-19T14:25:19;38.63
24484;DS18B20;12643;51.620;7.548;2022-07-19T14:27:51;38.50
24484;DS18B20;12643;51.620;7.548;2022-07-19T14:30:22;38.75
24484;DS18B20;12643;51.620;7.548;2022-07-19T14:32:53;38.81
24484;DS18B20;12643;51.620;7.548;2022-07-19T14:35:34;39.00
24484;DS18B20;12643;51.620;7.548;2022-07-19T14:38:12;39.13
24484;DS18B20;12643;51.620;7.548;2022-07-19T14:40:42;39.44
24484;DS18B20;12643;51.620;7.548;2022-07-19T14:43:13;39.38
24484;DS18B20;12643;51.620;7.548;2022-07-19T14:45:42;39.69
24484;DS18B20;12643;51.620;7.548;2022-07-19T14:48:15;39.13
24484;DS18B20;12643;51.620;7.548;2022-07-19T14:50:59;39.50
24484;DS18B20;12643;51.620;7.548;2022-07-19T14:53:39;39.38
24484;DS18B20;12643;51.620;7.548;2022-07-19T14:56:16;39.31
24484;DS18B20;12643;51.620;7.548;2022-07-19T14:58:48;39.56
24484;DS18B20;12643;51.620;7.548;2022-07-19T15:01:25;39.56
24484;DS18B20;12643;51.620;7.548;2022-07-19T15:06:54;39.81
24484;DS18B20;12643;51.620;7.548;2022-07-19T15:09:43;40.13
24484;DS18B20;12643;51.620;7.548;2022-07-19T15:12:33;40.00
24484;DS18B20;12643;51.620;7.548;2022-07-19T15:15:28;39.13
24484;DS18B20;12643;51.620;7.548;2022-07-19T15:18:03;39.06
24484;DS18B20;12643;51.620;7.548;2022-07-19T15:20:41;38.88
24484;DS18B20;12643;51.620;7.548;2022-07-19T15:23:24;39.44
24484;DS18B20;12643;51.620;7.548;2022-07-19T15:25:53;39.81
24484;DS18B20;12643;51.620;7.548;2022-07-19T15:28:32;40.19
24484;DS18B20;12643;51.620;7.548;2022-07-19T15:31:06;40.00
24484;DS18B20;12643;51.620;7.548;2022-07-19T15:33:34;40.00
24484;DS18B20;12643;51.620;7.548;2022-07-19T15:36:04;40.25
24484;DS18B20;12643;51.620;7.548;2022-07-19T15:38:38;39.44
24484;DS18B20;12643;51.620;7.548;2022-07-19T15:41:19;39.63
24484;DS18B20;12643;51.620;7.548;2022-07-19T15:43:50;39.31
24484;DS18B20;12643;51.620;7.548;2022-07-19T15:46:24;39.31
24484;DS18B20;12643;51.620;7.548;2022-07-19T15:49:04;40.13
24484;DS18B20;12643;51.620;7.548;2022-07-19T15:51:41;39.63
24484;DS18B20;12643;51.620;7.548;2022-07-19T15:54:14;39.81
24484;DS18B20;12643;51.620;7.548;2022-07-19T15:56:47;39.75
24484;DS18B20;12643;51.620;7.548;2022-07-19T15:59:16;39.25
24484;DS18B20;12643;51.620;7.548;2022-07-19T16:01:53;39.94
24484;DS18B20;12643;51.620;7.548;2022-07-19T16:04:35;39.75
24484;DS18B20;12643;51.620;7.548;2022-07-19T16:07:13;39.75
24484;DS18B20;12643;51.620;7.548;2022-07-19T16:10:00;39.81
24484;DS18B20;12643;51.620;7.548;2022-07-19T16:12:46;39.75
24484;DS18B20;12643;51.620;7.548;2022-07-19T16:15:14;39.75
24484;DS18B20;12643;51.620;7.548;2022-07-19T16:18:06;39.25
24484;DS18B20;12643;51.620;7.548;2022-07-19T16:21:28;39.19
24484;DS18B20;12643;51.620;7.548;2022-07-19T16:24:39;39.44
24484;DS18B20;12643;51.620;7.548;2022-07-19T16:31:17;39.88
24484;DS18B20;12643;51.620;7.548;2022-07-19T16:34:08;39.75
24484;DS18B20;12643;51.620;7.548;2022-07-19T16:40:46;39.44
24484;DS18B20;12643;51.620;7.548;2022-07-19T16:55:14;39.31
24484;DS18B20;12643;51.620;7.548;2022-07-19T16:58:51;39.13
24484;DS18B20;12643;51.620;7.548;2022-07-19T17:02:09;39.63
24484;DS18B20;12643;51.620;7.548;2022-07-19T17:08:21;39.50
24484;DS18B20;12643;51.620;7.548;2022-07-19T17:41:05;39.44
24484;DS18B20;12643;51.620;7.548;2022-07-19T17:47:28;39.00
24484;DS18B20;12643;51.620;7.548;2022-07-19T17:50:50;38.56
24484;DS18B20;12643;51.620;7.548;2022-07-19T17:54:22;38.63
24484;DS18B20;12643;51.620;7.548;2022-07-19T17:58:00;38.88
24484;DS18B20;12643;51.620;7.548;2022-07-19T18:01:04;38.75
24484;DS18B20;12643;51.620;7.548;2022-07-19T18:04:26;38.63
24484;DS18B20;12643;51.620;7.548;2022-07-19T18:07:39;38.50
24484;DS18B20;12643;51.620;7.548;2022-07-19T18:10:40;38.63
24484;DS18B20;12643;51.620;7.548;2022-07-19T18:14:06;38.56